createdAt,value
2022-08-23T00:03:26.271Z,100297.78
2022-08-23T00:08:29.381Z,100299.59
2022-08-23T00:13:47.752Z,100290.78
2022-08-23T00:18:51.152Z,100287.22
2022-08-23T00:23:53.953Z,100284.53
2022-08-23T00:28:58.121Z,100291.88
2022-08-23T00:34:01.073Z,100291.72
2022-08-23T00:39:04.490Z,100277.81
2022-08-23T00:44:29.026Z,100277.00
2022-08-23T00:49:33.295Z,100287.78
2022-08-23T00:54:37.924Z,100290.63
2022-08-23T00:59:42.442Z,100289.63
2022-08-23T01:04:49.859Z,100287.31
2022-08-23T01:09:55.148Z,100286.22
2022-08-23T01:15:02.245Z,100299.81
2022-08-23T01:20:08.807Z,100305.31
2022-08-23T01:25:17.882Z,100309.56
2022-08-23T01:30:23.867Z,100295.38
2022-08-23T01:35:33.478Z,100304.78
2022-08-23T01:40:38.515Z,100295.59
2022-08-23T01:45:43.899Z,100295.69
2022-08-23T01:50:48.687Z,100299.66
2022-08-23T01:55:52.850Z,100296.16
2022-08-23T02:00:57.833Z,100296.69
2022-08-23T02:06:00.845Z,100300.19
2022-08-23T02:11:10.555Z,100300.13
2022-08-23T02:16:23.697Z,100311.81
2022-08-23T02:21:27.651Z,100316.47
2022-08-23T02:26:32.230Z,100314.84
2022-08-23T02:31:39.685Z,100313.41
2022-08-23T02:36:43.299Z,100326.47
2022-08-23T02:41:48.296Z,100323.75
2022-08-23T02:46:51.418Z,100325.47
2022-08-23T02:51:54.270Z,100331.00
2022-08-23T02:56:58.690Z,100329.06
2022-08-23T03:02:01.949Z,100339.50
2022-08-23T03:07:09.845Z,100325.03
2022-08-23T03:12:15.218Z,100328.72
2022-08-23T03:17:34.292Z,100327.66
2022-08-23T03:22:40.166Z,100328.13
2022-08-23T03:27:53.480Z,100327.47
2022-08-23T03:32:57.260Z,100315.66
2022-08-23T03:38:00.440Z,100328.72
2022-08-23T03:43:05.018Z,100330.56
2022-08-23T03:48:07.868Z,100331.31
2022-08-23T03:53:12.060Z,100338.63
2022-08-23T03:58:18.429Z,100337.31
2022-08-23T04:03:21.358Z,100345.81
2022-08-23T04:08:36.427Z,100336.69
2022-08-23T04:13:43.006Z,100335.97
2022-08-23T04:18:47.732Z,100338.56
2022-08-23T04:23:52.874Z,100349.25
2022-08-23T04:28:57.980Z,100341.81
2022-08-23T04:34:01.466Z,100342.66
2022-08-23T04:39:04.463Z,100334.38
2022-08-23T04:44:09.541Z,100342.28
2022-08-23T04:49:12.670Z,100342.81
2022-08-23T04:54:19.011Z,100351.47
2022-08-23T04:59:46.995Z,100360.28
2022-08-23T05:04:51.561Z,100359.28
2022-08-23T05:09:54.393Z,100350.78
2022-08-23T05:14:58.628Z,100362.06
2022-08-23T05:20:02.424Z,100364.78
2022-08-23T05:25:06.781Z,100361.75
2022-08-23T05:30:15.287Z,100360.53
2022-08-23T05:35:21.133Z,100359.13
2022-08-23T05:40:24.097Z,100364.09
2022-08-23T05:45:41.111Z,100375.53
2022-08-23T05:50:47.911Z,100368.28
2022-08-23T05:55:51.392Z,100377.94
2022-08-23T06:00:57.429Z,100373.88
2022-08-23T06:06:00.658Z,100368.66
2022-08-23T06:11:04.683Z,100373.84
2022-08-23T06:16:15.961Z,100385.34
2022-08-23T06:21:20.144Z,100393.81
2022-08-23T06:26:26.976Z,100395.00
2022-08-23T06:31:47.262Z,100398.91
2022-08-23T06:36:55.124Z,100404.25
2022-08-23T06:42:38.009Z,100404.47
2022-08-23T06:47:42.332Z,100421.94
2022-08-23T06:52:48.183Z,100417.69
2022-08-23T06:58:08.414Z,100412.97
2022-08-23T07:03:37.342Z,100410.53
2022-08-23T07:08:59.947Z,100409.75
2022-08-23T07:14:06.307Z,100421.69
2022-08-23T07:19:12.216Z,100422.50
2022-08-23T07:24:15.557Z,100433.00
2022-08-23T07:29:19.787Z,100422.97
2022-08-23T07:34:24.859Z,100426.88
2022-08-23T07:39:27.964Z,100441.03
2022-08-23T07:44:31.172Z,100432.84
2022-08-23T07:49:36.737Z,100432.28
2022-08-23T07:54:40.367Z,100431.25
2022-08-23T08:00:01.375Z,100438.63
2022-08-23T08:05:06.483Z,100437.81
2022-08-23T08:10:09.830Z,100439.66
2022-08-23T08:15:13.030Z,100436.56
2022-08-23T08:20:18.531Z,100447.00
2022-08-23T08:25:50.755Z,100450.91
2022-08-23T08:30:55.817Z,100445.16
2022-08-23T08:36:01.283Z,100458.91
2022-08-23T08:41:25.524Z,100459.31
2022-08-23T08:46:38.775Z,100453.75
2022-08-23T08:51:48.607Z,100446.97
2022-08-23T08:56:54.078Z,100450.75
2022-08-23T09:02:01.816Z,100448.16
2022-08-23T09:07:15.967Z,100450.53
2022-08-23T09:12:24.914Z,100450.47
2022-08-23T09:17:34.463Z,100456.00
2022-08-23T09:22:44.474Z,100452.53
2022-08-23T09:27:57.228Z,100451.38
2022-08-23T09:33:16.257Z,100442.75
2022-08-23T09:38:21.538Z,100444.69
2022-08-23T09:43:31.598Z,100447.91
2022-08-23T09:48:39.042Z,100437.47
2022-08-23T09:53:49.605Z,100437.16
2022-08-23T09:58:54.485Z,100436.75
2022-08-23T10:04:16.101Z,100433.69
2022-08-23T10:09:30.437Z,100426.13
2022-08-23T10:14:34.092Z,100432.91
2022-08-23T10:19:42.655Z,100434.47
2022-08-23T10:24:49.432Z,100430.09
2022-08-23T10:29:59.386Z,100432.69
2022-08-23T10:35:15.050Z,100417.97
2022-08-23T10:40:28.392Z,100423.91
2022-08-23T10:45:34.098Z,100417.84
2022-08-23T10:50:55.559Z,100412.34
2022-08-23T10:56:04.158Z,100411.81
2022-08-23T11:01:16.296Z,100415.69
2022-08-23T11:06:44.465Z,100415.97
2022-08-23T11:11:51.586Z,100421.19
2022-08-23T11:16:59.483Z,100412.44
2022-08-23T11:22:15.111Z,100409.56
2022-08-23T11:27:37.271Z,100406.41
2022-08-23T11:32:44.127Z,100420.88
2022-08-23T11:38:01.636Z,100419.16
2022-08-23T11:43:27.346Z,100419.09
2022-08-23T11:48:43.692Z,100416.53
2022-08-23T11:54:18.112Z,100401.94
2022-08-23T11:59:43.024Z,100411.31
2022-08-23T12:04:50.642Z,100410.78
2022-08-23T12:09:56.280Z,100409.91
2022-08-23T12:15:01.844Z,100408.41
2022-08-23T12:20:16.882Z,100404.78
2022-08-23T12:25:21.314Z,100399.16
2022-08-23T12:30:28.719Z,100400.59
2022-08-23T12:35:36.194Z,100401.91
2022-08-23T12:40:42.630Z,100411.38
2022-08-23T12:45:49.782Z,100404.47
2022-08-23T12:50:57.530Z,100394.63
2022-08-23T12:56:02.407Z,100390.19
2022-08-23T13:01:09.227Z,100381.13
2022-08-23T13:06:15.936Z,100386.25
2022-08-23T13:11:22.250Z,100392.22
2022-08-23T13:16:29.512Z,100387.13
2022-08-23T13:21:39.545Z,100387.94
2022-08-23T13:26:44.557Z,100393.72
2022-08-23T13:31:57.177Z,100389.13
2022-08-23T13:37:03.927Z,100386.50
2022-08-23T13:42:06.918Z,100389.66
2022-08-23T13:47:22.812Z,100384.78
2022-08-23T13:57:48.640Z,100367.34
2022-08-23T14:02:52.800Z,100375.38
2022-08-23T14:07:56.399Z,100379.88
2022-08-23T14:13:00.668Z,100372.28
2022-08-23T14:18:05.291Z,100375.84
2022-08-23T14:23:12.015Z,100372.94
2022-08-23T14:28:15.239Z,100375.81
2022-08-23T14:33:20.413Z,100369.03
2022-08-23T14:38:23.434Z,100373.28
2022-08-23T14:43:27.056Z,100364.72
2022-08-23T14:48:31.333Z,100363.47
2022-08-23T14:53:41.190Z,100363.06
2022-08-23T14:58:44.648Z,100370.78
2022-08-23T15:03:49.289Z,100357.34
2022-08-23T15:08:52.166Z,100374.81
2022-08-23T15:13:56.360Z,100379.19
2022-08-23T15:19:01.312Z,100378.09
2022-08-23T15:24:05.359Z,100359.06
2022-08-23T15:29:08.421Z,100358.00
2022-08-23T15:34:13.331Z,100364.06
2022-08-23T15:39:16.117Z,100345.56
2022-08-23T15:44:18.984Z,100359.47
2022-08-23T15:49:24.081Z,100356.41
2022-08-23T15:54:26.897Z,100358.06
2022-08-23T15:59:30.323Z,100359.06
2022-08-23T16:04:35.863Z,100362.09
2022-08-23T16:09:38.817Z,100352.19
2022-08-23T16:14:41.693Z,100357.44
2022-08-23T16:19:45.782Z,100355.13
2022-08-23T16:24:48.622Z,100352.19
2022-08-23T16:29:51.357Z,100357.66
2022-08-23T16:34:55.826Z,100363.91
2022-08-23T16:39:58.641Z,100367.03
2022-08-23T16:45:01.812Z,100356.53
2022-08-23T16:50:06.811Z,100366.47
2022-08-23T16:55:12.570Z,100367.31
2022-08-23T17:00:15.962Z,100353.03
2022-08-23T17:05:20.291Z,100357.38
2022-08-23T17:10:23.872Z,100365.41
2022-08-23T17:15:33.918Z,100377.31
2022-08-23T17:20:40.034Z,100376.25
2022-08-23T17:25:47.566Z,100369.84
2022-08-23T17:30:50.390Z,100369.13
2022-08-23T17:35:54.551Z,100376.06
2022-08-23T17:40:57.520Z,100378.91
2022-08-23T17:46:00.288Z,100383.81
2022-08-23T17:51:04.467Z,100391.09
2022-08-23T17:56:11.711Z,100394.75
2022-08-23T18:01:15.427Z,100389.78
2022-08-23T18:06:19.909Z,100406.41
2022-08-23T18:11:22.957Z,100417.22
2022-08-23T18:16:30.751Z,100423.88
2022-08-23T18:21:39.461Z,100435.03
2022-08-23T18:27:00.395Z,100444.09
2022-08-23T18:32:05.528Z,100444.44
2022-08-23T18:37:09.662Z,100458.59
2022-08-23T18:42:12.709Z,100457.50
2022-08-23T18:47:15.628Z,100461.41
2022-08-23T18:52:19.796Z,100474.16
2022-08-23T18:57:22.646Z,100472.81
2022-08-23T19:02:25.514Z,100478.31
2022-08-23T19:07:29.987Z,100484.84
2022-08-23T19:12:33.170Z,100479.19
2022-08-23T19:17:35.995Z,100498.66
2022-08-23T19:22:40.195Z,100501.00
2022-08-23T19:27:43.046Z,100501.50
2022-08-23T19:32:46.231Z,100503.44
2022-08-23T19:37:50.576Z,100504.75
2022-08-23T19:42:53.463Z,100508.34
2022-08-23T19:47:59.624Z,100511.50
2022-08-23T19:53:04.178Z,100515.25
2022-08-23T19:58:07.808Z,100512.94
2022-08-23T20:03:11.733Z,100523.88
2022-08-23T20:08:15.913Z,100517.22
2022-08-23T20:13:20.038Z,100524.19
2022-08-23T20:18:22.873Z,100526.66
2022-08-23T20:23:44.407Z,100526.09
2022-08-23T20:28:59.157Z,100532.69
2022-08-23T20:34:03.606Z,100523.25
2022-08-23T20:39:07.883Z,100530.69
2022-08-23T20:44:10.629Z,100529.91
2022-08-23T20:49:13.821Z,100531.34
2022-08-23T20:54:18.514Z,100532.03
2022-08-23T20:59:21.743Z,100527.47
2022-08-23T21:04:29.997Z,100530.78
2022-08-23T21:09:34.657Z,100537.38
2022-08-23T21:14:37.477Z,100533.50
2022-08-23T21:19:40.245Z,100536.59
2022-08-23T21:24:44.515Z,100543.78
2022-08-23T21:29:47.242Z,100537.66
2022-08-23T21:34:50.020Z,100540.56
2022-08-23T21:39:54.312Z,100538.09
2022-08-23T21:44:57.368Z,100535.22
2022-08-23T21:50:00.549Z,100533.78
2022-08-23T21:55:06.364Z,100538.09
2022-08-23T22:00:13.721Z,100538.91
2022-08-23T22:05:16.819Z,100534.22
2022-08-23T22:10:21.435Z,100533.00
2022-08-23T22:15:25.611Z,100531.16
2022-08-23T22:20:28.407Z,100535.66
2022-08-23T22:25:33.115Z,100540.59
2022-08-23T22:30:36.004Z,100540.56
2022-08-23T22:35:39.143Z,100540.16
2022-08-23T22:40:48.590Z,100537.06
2022-08-23T22:45:52.409Z,100533.59
2022-08-23T22:51:06.174Z,100530.91
2022-08-23T22:56:12.231Z,100523.94
2022-08-23T23:01:19.805Z,100526.41
2022-08-23T23:06:24.152Z,100525.56
2022-08-23T23:11:29.339Z,100516.31
2022-08-23T23:16:32.775Z,100510.78
2022-08-23T23:21:36.135Z,100519.59
2022-08-23T23:26:40.597Z,100523.47
2022-08-23T23:31:43.548Z,100514.25
2022-08-23T23:36:46.286Z,100512.59
2022-08-23T23:41:50.636Z,100508.91
2022-08-23T23:46:53.417Z,100512.16
2022-08-23T23:51:56.131Z,100501.28
2022-08-23T23:57:00.345Z,100504.31
